createdAt,value
2022-11-16T00:00:02.811Z,11.15
2022-11-16T00:02:31.992Z,11.14
2022-11-16T00:04:58.498Z,11.13
2022-11-16T00:07:24.980Z,11.14
2022-11-16T00:09:51.557Z,11.15
2022-11-16T00:12:18.086Z,11.15
2022-11-16T00:14:44.533Z,11.14
2022-11-16T00:17:11.062Z,11.15
2022-11-16T00:19:37.867Z,11.16
2022-11-16T00:22:04.548Z,11.16
2022-11-16T00:24:31.104Z,11.16
2022-11-16T00:26:57.710Z,11.16
2022-11-16T00:29:25.754Z,11.16
2022-11-16T00:31:53.889Z,11.15
2022-11-16T00:34:21.561Z,11.16
2022-11-16T00:36:48.651Z,11.17
2022-11-16T00:39:16.611Z,11.16
2022-11-16T00:41:44.753Z,11.18
2022-11-16T00:44:11.575Z,11.17
2022-11-16T00:46:38.311Z,11.18
2022-11-16T00:49:05.601Z,11.19
2022-11-16T00:51:33.121Z,11.17
2022-11-16T00:53:59.846Z,11.18
2022-11-16T00:56:26.300Z,11.20
2022-11-16T00:58:52.947Z,11.19
2022-11-16T01:01:19.869Z,11.23
2022-11-16T01:03:47.757Z,11.20
2022-11-16T01:06:15.634Z,11.21
2022-11-16T01:08:42.566Z,11.19
2022-11-16T01:11:31.493Z,11.20
2022-11-16T01:13:57.957Z,11.21
2022-11-16T01:16:24.800Z,11.19
2022-11-16T01:18:53.499Z,11.21
2022-11-16T01:21:20.916Z,11.22
2022-11-16T01:23:47.657Z,11.22
2022-11-16T01:26:14.243Z,11.21
2022-11-16T01:28:40.750Z,11.23
2022-11-16T01:31:08.988Z,11.24
2022-11-16T01:33:36.794Z,11.23
2022-11-16T01:36:08.312Z,11.24
2022-11-16T01:38:35.065Z,11.24
2022-11-16T01:41:01.827Z,11.23
2022-11-16T01:43:28.401Z,11.23
2022-11-16T01:45:54.992Z,11.25
2022-11-16T01:48:27.635Z,11.23
2022-11-16T01:50:56.302Z,11.24
2022-11-16T01:53:24.728Z,11.23
2022-11-16T01:55:52.114Z,11.25
2022-11-16T01:58:23.223Z,11.25
2022-11-16T02:00:49.957Z,11.27
2022-11-16T02:03:21.000Z,11.27
2022-11-16T02:06:12.309Z,11.27
2022-11-16T02:09:11.521Z,11.30
2022-11-16T02:12:15.072Z,11.28
2022-11-16T02:14:53.239Z,11.31
2022-11-16T02:17:33.496Z,11.28
2022-11-16T02:20:29.796Z,11.27
2022-11-16T02:23:11.324Z,11.29
2022-11-16T02:26:03.260Z,11.30
2022-11-16T02:28:54.420Z,11.29
2022-11-16T02:31:27.330Z,11.31
2022-11-16T02:33:56.879Z,11.28
2022-11-16T02:36:25.692Z,11.30
2022-11-16T02:39:01.633Z,11.28
2022-11-16T02:41:34.083Z,11.30
2022-11-16T02:44:06.234Z,11.31
2022-11-16T02:46:38.187Z,11.31
2022-11-16T02:49:11.293Z,11.31
2022-11-16T02:51:40.025Z,11.30
2022-11-16T02:54:14.677Z,11.32
2022-11-16T02:57:02.950Z,11.31
2022-11-16T02:59:36.367Z,11.31
2022-11-16T03:02:18.088Z,11.32
2022-11-16T03:04:48.921Z,11.32
2022-11-16T03:07:20.390Z,11.30
2022-11-16T03:09:49.648Z,11.32
2022-11-16T03:12:22.109Z,11.32
2022-11-16T03:14:58.904Z,11.31
2022-11-16T03:17:37.907Z,11.33
2022-11-16T03:20:11.858Z,11.32
2022-11-16T03:22:48.601Z,11.32
2022-11-16T03:25:19.683Z,11.31
2022-11-16T03:27:55.027Z,11.32
2022-11-16T03:30:24.324Z,11.30
2022-11-16T03:33:01.567Z,11.31
2022-11-16T03:35:35.242Z,11.30
2022-11-16T03:38:05.408Z,11.31
2022-11-16T03:40:34.474Z,11.27
2022-11-16T03:43:03.188Z,11.27
2022-11-16T03:45:31.169Z,11.28
2022-11-16T03:47:57.630Z,11.26
2022-11-16T03:50:24.301Z,11.26
2022-11-16T03:52:50.760Z,11.25
2022-11-16T03:55:17.542Z,11.26
2022-11-16T03:57:44.014Z,11.24
2022-11-16T04:00:11.455Z,11.23
2022-11-16T04:02:38.194Z,11.24
2022-11-16T04:05:23.461Z,11.23
2022-11-16T04:08:18.799Z,11.21
2022-11-16T04:11:04.167Z,11.19
2022-11-16T04:13:51.646Z,11.20
2022-11-16T04:16:36.811Z,11.18
2022-11-16T04:19:21.971Z,11.15
2022-11-16T04:22:12.650Z,11.14
2022-11-16T04:24:41.094Z,11.11
2022-11-16T04:27:29.525Z,11.10
2022-11-16T04:29:58.762Z,11.10
2022-11-16T04:32:43.864Z,11.07
2022-11-16T04:35:29.049Z,11.06
2022-11-16T04:37:59.014Z,11.04
2022-11-16T04:40:30.369Z,11.03
2022-11-16T04:42:59.303Z,11.02
2022-11-16T04:45:46.089Z,10.99
2022-11-16T04:48:15.018Z,10.95
2022-11-16T04:50:41.963Z,10.96
2022-11-16T04:53:09.195Z,10.96
2022-11-16T04:55:36.304Z,10.93
2022-11-16T04:58:03.275Z,10.91
2022-11-16T05:00:30.339Z,10.89
2022-11-16T05:03:01.207Z,10.88
2022-11-16T05:05:28.819Z,10.87
2022-11-16T05:07:55.672Z,10.86
2022-11-16T05:10:22.227Z,10.85
2022-11-16T05:12:48.709Z,10.83
2022-11-16T05:15:17.592Z,10.80
2022-11-16T05:17:44.295Z,10.79
2022-11-16T05:20:29.937Z,10.77
2022-11-16T05:22:58.138Z,10.75
2022-11-16T05:25:24.716Z,10.73
2022-11-16T05:27:51.480Z,10.71
2022-11-16T05:30:18.549Z,10.69
2022-11-16T05:32:46.110Z,10.68
2022-11-16T05:35:13.670Z,10.66
2022-11-16T05:37:40.188Z,10.64
2022-11-16T05:40:08.716Z,10.64
2022-11-16T05:42:35.223Z,10.60
2022-11-16T05:45:01.715Z,10.58
2022-11-16T05:47:28.241Z,10.57
2022-11-16T05:49:54.716Z,10.56
2022-11-16T05:52:21.244Z,10.52
2022-11-16T05:54:47.740Z,10.49
2022-11-16T05:57:15.382Z,10.48
2022-11-16T05:59:42.636Z,10.45
2022-11-16T06:02:09.280Z,10.45
2022-11-16T06:04:35.921Z,10.45
2022-11-16T06:07:02.477Z,10.43
2022-11-16T06:09:29.115Z,10.43
2022-11-16T06:11:55.711Z,10.39
2022-11-16T06:14:22.227Z,10.39
2022-11-16T06:16:48.781Z,10.39
2022-11-16T06:19:15.441Z,10.37
2022-11-16T06:21:42.098Z,10.36
2022-11-16T06:24:09.654Z,10.35
2022-11-16T06:26:37.268Z,10.36
2022-11-16T06:29:04.202Z,10.35
2022-11-16T06:31:31.179Z,10.33
2022-11-16T06:33:57.702Z,10.33
2022-11-16T06:36:24.250Z,10.30
2022-11-16T06:38:51.099Z,10.27
2022-11-16T06:41:17.698Z,10.25
2022-11-16T06:43:44.443Z,10.24
2022-11-16T06:46:11.303Z,10.22
2022-11-16T06:48:37.998Z,10.21
2022-11-16T06:51:05.589Z,10.19
2022-11-16T06:53:32.047Z,10.18
2022-11-16T06:56:03.764Z,10.17
2022-11-16T06:58:32.147Z,10.13
2022-11-16T07:01:06.078Z,10.10
2022-11-16T07:03:32.693Z,10.04
2022-11-16T07:05:59.348Z,10.03
2022-11-16T07:08:26.011Z,9.99
2022-11-16T07:10:52.530Z,9.95
2022-11-16T07:13:19.039Z,9.91
2022-11-16T07:15:45.469Z,9.89
2022-11-16T07:18:12.062Z,9.86
2022-11-16T07:20:38.966Z,9.83
2022-11-16T07:23:07.093Z,9.82
2022-11-16T07:25:36.676Z,9.79
2022-11-16T07:28:04.804Z,9.76
2022-11-16T07:30:31.429Z,9.74
2022-11-16T07:32:59.176Z,9.72
2022-11-16T07:35:25.956Z,9.73
2022-11-16T07:37:52.517Z,9.73
2022-11-16T07:40:19.577Z,9.76
2022-11-16T07:42:46.451Z,9.80
2022-11-16T07:45:13.080Z,9.83
2022-11-16T07:47:39.644Z,9.87
2022-11-16T07:50:06.828Z,9.92
2022-11-16T07:52:33.359Z,9.99
2022-11-16T07:55:01.865Z,10.02
2022-11-16T07:57:28.723Z,10.08
2022-11-16T07:59:55.133Z,10.11
2022-11-16T08:02:21.562Z,10.16
2022-11-16T08:04:48.061Z,10.18
2022-11-16T08:07:16.551Z,10.22
2022-11-16T08:09:43.667Z,10.26
2022-11-16T08:12:10.250Z,10.29
2022-11-16T08:14:36.787Z,10.36
2022-11-16T08:17:05.104Z,10.38
2022-11-16T08:19:31.734Z,10.40
2022-11-16T08:21:58.288Z,10.45
2022-11-16T08:24:25.338Z,10.46
2022-11-16T08:26:51.968Z,10.49
2022-11-16T08:29:18.624Z,10.53
2022-11-16T08:31:45.984Z,10.56
2022-11-16T08:34:12.625Z,10.61
2022-11-16T08:36:39.298Z,10.63
2022-11-16T08:39:05.773Z,10.63
2022-11-16T08:41:32.671Z,10.61
2022-11-16T08:44:01.273Z,10.66
2022-11-16T08:46:28.149Z,10.69
2022-11-16T08:48:57.105Z,10.74
2022-11-16T08:51:24.848Z,10.74
2022-11-16T08:53:56.497Z,10.77
2022-11-16T08:56:23.974Z,10.84
2022-11-16T08:58:58.127Z,10.84
2022-11-16T09:01:28.202Z,10.91
2022-11-16T09:03:55.378Z,10.94
2022-11-16T09:06:24.291Z,10.94
2022-11-16T09:08:51.793Z,11.02
2022-11-16T09:11:21.843Z,11.09
2022-11-16T09:13:50.735Z,11.14
2022-11-16T09:16:20.855Z,11.21
2022-11-16T09:18:49.588Z,11.29
2022-11-16T09:21:20.222Z,11.37
2022-11-16T09:23:48.378Z,11.39
2022-11-16T09:26:15.847Z,11.36
2022-11-16T09:28:42.433Z,11.42
2022-11-16T09:31:10.509Z,11.45
2022-11-16T09:33:37.892Z,11.43
2022-11-16T09:36:08.139Z,11.47
2022-11-16T09:38:55.756Z,11.52
2022-11-16T09:41:52.750Z,11.57
2022-11-16T09:44:47.367Z,11.70
2022-11-16T09:47:24.038Z,11.71
2022-11-16T09:50:02.773Z,11.70
2022-11-16T09:52:46.637Z,11.70
2022-11-16T09:55:43.398Z,11.77
2022-11-16T09:58:17.840Z,11.77
2022-11-16T10:00:50.274Z,11.80
2022-11-16T10:03:17.079Z,11.87
2022-11-16T10:05:46.413Z,11.87
2022-11-16T10:08:31.900Z,11.96
2022-11-16T10:11:22.099Z,11.92
2022-11-16T10:14:22.492Z,12.00
2022-11-16T10:17:07.034Z,12.08
2022-11-16T10:19:36.382Z,12.02
2022-11-16T10:22:21.371Z,12.05
2022-11-16T10:24:53.628Z,12.08
2022-11-16T10:27:27.588Z,12.07
2022-11-16T10:29:57.005Z,12.13
2022-11-16T10:32:39.038Z,12.17
2022-11-16T10:35:12.725Z,12.22
2022-11-16T10:37:50.595Z,12.26
2022-11-16T10:40:36.291Z,12.32
2022-11-16T10:43:13.656Z,12.32
2022-11-16T10:45:50.756Z,12.31
2022-11-16T10:48:22.503Z,12.35
2022-11-16T10:50:53.140Z,12.40
2022-11-16T10:53:36.354Z,12.41
2022-11-16T10:56:22.280Z,12.43
2022-11-16T10:58:48.754Z,12.43
2022-11-16T11:01:28.457Z,12.52
2022-11-16T11:03:55.506Z,12.58
2022-11-16T11:06:26.722Z,12.59
2022-11-16T11:08:53.465Z,12.67
2022-11-16T11:11:42.716Z,12.71
2022-11-16T11:14:12.139Z,12.69
2022-11-16T11:16:41.522Z,12.70
2022-11-16T11:19:19.651Z,12.72
2022-11-16T11:21:47.586Z,12.76
2022-11-16T11:24:43.413Z,12.68
2022-11-16T11:27:03.733Z,12.71
2022-11-16T11:29:42.168Z,12.75
2022-11-16T11:32:22.383Z,12.76
2022-11-16T11:34:53.812Z,12.78
2022-11-16T11:37:29.164Z,12.78
2022-11-16T11:40:07.856Z,12.84
2022-11-16T11:42:51.145Z,12.81
2022-11-16T11:45:19.871Z,12.86
2022-11-16T11:47:59.985Z,12.83
2022-11-16T11:50:43.273Z,12.86
2022-11-16T11:53:47.404Z,12.87
2022-11-16T11:56:15.478Z,12.86
2022-11-16T11:58:43.153Z,12.89
2022-11-16T12:01:40.546Z,12.93
2022-11-16T12:04:28.812Z,12.94
2022-11-16T12:07:32.857Z,12.98
2022-11-16T12:10:20.734Z,12.93
2022-11-16T12:13:10.787Z,12.91
2022-11-16T12:15:57.725Z,12.98
2022-11-16T12:18:53.666Z,13.05
2022-11-16T12:21:30.011Z,13.11
2022-11-16T12:24:02.260Z,13.12
2022-11-16T12:26:50.331Z,13.07
2022-11-16T12:29:19.697Z,13.14
2022-11-16T12:32:14.395Z,13.20
2022-11-16T12:34:48.338Z,13.16
2022-11-16T12:37:39.572Z,13.21
2022-11-16T12:40:37.546Z,13.28
2022-11-16T12:43:13.251Z,13.18
2022-11-16T12:45:51.535Z,13.13
2022-11-16T12:48:36.724Z,13.22
2022-11-16T12:51:18.840Z,13.29
2022-11-16T12:53:54.400Z,13.29
2022-11-16T12:56:37.215Z,13.33
2022-11-16T12:59:34.690Z,13.36
2022-11-16T13:02:08.515Z,13.28
2022-11-16T13:04:43.625Z,13.29
2022-11-16T13:07:33.416Z,13.28
2022-11-16T13:10:13.649Z,13.28
2022-11-16T13:12:43.889Z,13.25
2022-11-16T13:15:19.327Z,13.24
2022-11-16T13:17:55.258Z,13.25
2022-11-16T13:20:33.506Z,13.21
2022-11-16T13:23:42.024Z,13.24
2022-11-16T13:26:18.168Z,13.23
2022-11-16T13:29:07.358Z,13.22
2022-11-16T13:31:39.448Z,13.20
2022-11-16T13:34:14.410Z,13.19
2022-11-16T13:36:45.400Z,13.18
2022-11-16T13:39:21.513Z,13.20
2022-11-16T13:41:49.111Z,13.15
2022-11-16T13:44:20.415Z,13.16
2022-11-16T13:46:56.797Z,13.12
2022-11-16T13:49:29.439Z,13.10
2022-11-16T13:52:16.872Z,13.09
2022-11-16T13:54:53.071Z,13.07
2022-11-16T13:57:26.724Z,13.01
2022-11-16T14:00:10.466Z,13.05
2022-11-16T14:02:42.884Z,13.03
2022-11-16T14:05:12.481Z,13.04
2022-11-16T14:07:45.356Z,13.04
2022-11-16T14:10:32.458Z,13.09
2022-11-16T14:13:04.520Z,13.12
2022-11-16T14:15:36.091Z,13.11
2022-11-16T14:18:32.375Z,13.13
2022-11-16T14:21:10.708Z,13.15
2022-11-16T14:24:05.598Z,13.12
2022-11-16T14:27:03.202Z,13.10
2022-11-16T14:30:08.364Z,13.07
2022-11-16T14:32:43.396Z,13.05
2022-11-16T14:35:27.105Z,13.00
2022-11-16T14:38:06.316Z,12.96
2022-11-16T14:40:42.992Z,12.94
2022-11-16T14:43:17.997Z,12.94
2022-11-16T14:45:52.020Z,12.94
2022-11-16T14:48:21.648Z,12.95
2022-11-16T14:51:08.381Z,12.99
2022-11-16T14:53:39.400Z,12.98
2022-11-16T14:56:08.841Z,12.96
2022-11-16T14:58:36.189Z,12.95
2022-11-16T15:01:06.232Z,12.96
2022-11-16T15:03:41.734Z,12.93
2022-11-16T15:06:08.728Z,12.90
2022-11-16T15:08:49.722Z,12.89
2022-11-16T15:11:25.410Z,12.87
2022-11-16T15:13:52.321Z,12.83
2022-11-16T15:16:20.312Z,12.79
2022-11-16T15:19:12.535Z,12.75
2022-11-16T15:21:38.984Z,12.72
2022-11-16T15:24:29.227Z,12.70
2022-11-16T15:26:52.700Z,12.68
2022-11-16T15:29:21.413Z,12.65
2022-11-16T15:31:49.166Z,12.63
2022-11-16T15:34:18.167Z,12.57
2022-11-16T15:36:46.007Z,12.53
2022-11-16T15:39:16.445Z,12.51
2022-11-16T15:41:43.578Z,12.47
2022-11-16T15:44:16.146Z,12.42
2022-11-16T15:46:47.371Z,12.37
2022-11-16T15:49:27.305Z,12.36
2022-11-16T15:51:54.250Z,12.34
2022-11-16T15:54:51.934Z,12.31
2022-11-16T15:57:20.424Z,12.25
2022-11-16T15:59:56.369Z,12.23
2022-11-16T16:02:27.544Z,12.19
2022-11-16T16:04:54.677Z,12.15
2022-11-16T16:07:43.040Z,12.10
2022-11-16T16:10:24.650Z,12.07
2022-11-16T16:12:58.563Z,11.99
2022-11-16T16:15:34.022Z,11.95
2022-11-16T16:18:02.388Z,11.94
2022-11-16T16:20:31.996Z,11.92
2022-11-16T16:23:16.472Z,11.91
2022-11-16T16:25:49.064Z,11.90
2022-11-16T16:28:16.867Z,11.89
2022-11-16T16:30:43.565Z,11.86
2022-11-16T16:33:19.450Z,11.83
2022-11-16T16:35:49.700Z,11.79
2022-11-16T16:38:16.474Z,11.75
2022-11-16T16:40:42.981Z,11.73
2022-11-16T16:43:09.633Z,11.71
2022-11-16T16:45:38.990Z,11.66
2022-11-16T16:48:06.443Z,11.63
2022-11-16T16:50:32.947Z,11.63
2022-11-16T16:52:59.707Z,11.62
2022-11-16T16:55:26.427Z,11.55
2022-11-16T16:57:56.551Z,11.54
2022-11-16T17:00:23.716Z,11.53
2022-11-16T17:02:50.748Z,11.50
2022-11-16T17:05:17.402Z,11.45
2022-11-16T17:07:43.948Z,11.44
2022-11-16T17:10:11.022Z,11.42
2022-11-16T17:12:37.558Z,11.40
2022-11-16T17:15:04.286Z,11.38
2022-11-16T17:17:31.731Z,11.36
2022-11-16T17:19:58.577Z,11.38
2022-11-16T17:22:25.426Z,11.37
2022-11-16T17:24:51.971Z,11.33
2022-11-16T17:27:18.664Z,11.34
2022-11-16T17:29:45.116Z,11.31
2022-11-16T17:32:11.797Z,11.27
2022-11-16T17:34:39.986Z,11.24
2022-11-16T17:37:06.747Z,11.23
2022-11-16T17:39:33.305Z,11.23
2022-11-16T17:41:59.861Z,11.20
2022-11-16T17:44:26.847Z,11.19
2022-11-16T17:46:53.303Z,11.16
2022-11-16T17:49:20.061Z,11.16
2022-11-16T17:51:46.477Z,11.15
2022-11-16T17:54:13.056Z,11.10
2022-11-16T17:56:39.587Z,11.06
2022-11-16T17:59:06.375Z,11.06
2022-11-16T18:01:33.418Z,11.05
2022-11-16T18:04:01.204Z,11.03
2022-11-16T18:06:28.224Z,11.02
2022-11-16T18:08:54.957Z,11.01
2022-11-16T18:11:24.075Z,11.00
2022-11-16T18:13:59.515Z,11.02
2022-11-16T18:16:28.737Z,11.04
2022-11-16T18:19:03.135Z,11.04
2022-11-16T18:21:29.999Z,11.05
2022-11-16T18:23:58.930Z,11.05
2022-11-16T18:26:25.604Z,11.07
2022-11-16T18:28:52.875Z,11.10
2022-11-16T18:31:21.932Z,11.11
2022-11-16T18:33:51.941Z,11.14
2022-11-16T18:36:20.010Z,11.17
2022-11-16T18:38:46.937Z,11.16
2022-11-16T18:41:13.509Z,11.16
2022-11-16T18:43:39.895Z,11.19
2022-11-16T18:46:06.742Z,11.20
2022-11-16T18:48:33.593Z,11.21
2022-11-16T18:51:01.711Z,11.19
2022-11-16T18:53:29.731Z,11.19
2022-11-16T18:55:58.052Z,11.20
2022-11-16T19:01:14.839Z,11.18
2022-11-16T19:03:41.650Z,11.19
2022-11-16T19:06:09.781Z,11.19
2022-11-16T19:08:38.052Z,11.20
2022-11-16T19:11:13.612Z,11.20
2022-11-16T19:13:42.108Z,11.21
2022-11-16T19:16:11.583Z,11.22
2022-11-16T19:18:38.930Z,11.24
2022-11-16T19:21:09.965Z,11.23
2022-11-16T19:23:42.822Z,11.21
2022-11-16T19:26:10.356Z,11.21
2022-11-16T19:28:38.364Z,11.22
2022-11-16T19:31:15.725Z,11.23
2022-11-16T19:33:43.018Z,11.26
2022-11-16T19:36:12.535Z,11.25
2022-11-16T19:38:39.537Z,11.25
2022-11-16T19:41:07.330Z,11.26
2022-11-16T19:43:34.749Z,11.28
2022-11-16T19:46:10.475Z,11.26
2022-11-16T19:48:37.698Z,11.26
2022-11-16T19:51:09.166Z,11.27
2022-11-16T19:53:36.429Z,11.27
2022-11-16T19:56:04.234Z,11.30
2022-11-16T19:58:32.016Z,11.30
2022-11-16T20:01:07.042Z,11.27
2022-11-16T20:03:34.702Z,11.29
2022-11-16T20:06:07.118Z,11.31
2022-11-16T20:08:33.802Z,11.27
2022-11-16T20:11:00.452Z,11.28
2022-11-16T20:13:27.060Z,11.26
2022-11-16T20:15:53.573Z,11.24
2022-11-16T20:18:20.129Z,11.24
2022-11-16T20:20:46.672Z,11.23
2022-11-16T20:23:15.668Z,11.23
2022-11-16T20:25:42.185Z,11.22
2022-11-16T20:28:09.554Z,11.21
2022-11-16T20:30:38.093Z,11.21
2022-11-16T20:33:04.562Z,11.24
2022-11-16T20:35:31.085Z,11.25
2022-11-16T20:37:57.687Z,11.26
2022-11-16T20:40:24.956Z,11.27
2022-11-16T20:42:51.454Z,11.29
2022-11-16T20:45:17.980Z,11.31
2022-11-16T20:47:44.552Z,11.31
2022-11-16T20:50:11.078Z,11.28
2022-11-16T20:52:42.433Z,11.29
2022-11-16T20:55:10.194Z,11.27
2022-11-16T20:57:37.277Z,11.31
2022-11-16T21:00:05.083Z,11.33
2022-11-16T21:02:31.655Z,11.31
2022-11-16T21:05:00.484Z,11.30
2022-11-16T21:07:27.339Z,11.26
2022-11-16T21:10:12.205Z,11.22
2022-11-16T21:12:57.158Z,11.15
2022-11-16T21:15:23.602Z,11.08
2022-11-16T21:17:50.100Z,11.01
2022-11-16T21:20:32.256Z,10.94
2022-11-16T21:22:58.748Z,10.86
2022-11-16T21:25:25.277Z,10.80
2022-11-16T21:27:51.812Z,10.71
2022-11-16T21:30:19.880Z,10.67
2022-11-16T21:32:46.409Z,10.62
2022-11-16T21:35:13.109Z,10.56
2022-11-16T21:37:39.695Z,10.52
2022-11-16T21:40:06.668Z,10.48
2022-11-16T21:42:33.244Z,10.44
2022-11-16T21:44:59.731Z,10.40
2022-11-16T21:47:26.357Z,10.38
2022-11-16T21:50:29.669Z,10.34
2022-11-16T21:52:39.329Z,10.29
2022-11-16T21:55:06.152Z,10.25
2022-11-16T21:57:32.670Z,10.23
2022-11-16T22:00:00.987Z,10.22
2022-11-16T22:02:27.596Z,10.19
2022-11-16T22:05:12.624Z,10.18
2022-11-16T22:07:41.155Z,10.14
2022-11-16T22:10:10.152Z,10.12
2022-11-16T22:12:37.443Z,10.10
2022-11-16T22:15:05.971Z,10.08
2022-11-16T22:17:33.298Z,10.07
2022-11-16T22:19:59.773Z,10.06
2022-11-16T22:22:26.424Z,10.05
2022-11-16T22:24:53.081Z,10.04
2022-11-16T22:27:19.742Z,10.03
2022-11-16T22:29:46.270Z,10.03
2022-11-16T22:32:12.814Z,10.02
2022-11-16T22:34:39.407Z,10.00
2022-11-16T22:37:05.957Z,10.00
2022-11-16T22:39:32.556Z,10.00
2022-11-16T22:41:59.023Z,10.00
2022-11-16T22:44:25.508Z,9.98
2022-11-16T22:46:52.693Z,9.98
2022-11-16T22:49:19.655Z,9.96
2022-11-16T22:51:46.451Z,9.96
2022-11-16T22:54:13.523Z,9.96
2022-11-16T22:56:40.060Z,9.93
2022-11-16T22:59:06.827Z,9.94
2022-11-16T23:01:33.558Z,9.92
2022-11-16T23:04:00.270Z,9.90
2022-11-16T23:06:27.304Z,9.88
2022-11-16T23:08:54.119Z,9.87
2022-11-16T23:11:43.471Z,9.84
2022-11-16T23:14:31.131Z,9.83
2022-11-16T23:16:58.077Z,9.82
2022-11-16T23:19:44.274Z,9.81
2022-11-16T23:22:37.394Z,9.78
2022-11-16T23:25:24.073Z,9.77
2022-11-16T23:28:05.630Z,9.75
2022-11-16T23:30:32.827Z,9.72
2022-11-16T23:32:59.445Z,9.71
2022-11-16T23:35:25.998Z,9.68
2022-11-16T23:38:01.098Z,9.68
2022-11-16T23:40:30.503Z,9.65
2022-11-16T23:43:16.555Z,9.64
2022-11-16T23:45:43.717Z,9.61
2022-11-16T23:48:12.092Z,9.60
2022-11-16T23:50:38.731Z,9.60
2022-11-16T23:53:06.845Z,9.58
2022-11-16T23:55:34.782Z,9.56
2022-11-16T23:58:01.595Z,9.52
